createdAt,value
2024-01-24T00:01:53.633Z,2.90
2024-01-24T00:04:23.424Z,2.90
2024-01-24T00:06:51.995Z,3.00
2024-01-24T00:09:20.185Z,3.10
2024-01-24T00:11:48.458Z,3.10
2024-01-24T00:14:18.110Z,3.10
2024-01-24T00:16:46.061Z,3.10
2024-01-24T00:19:14.269Z,3.10
2024-01-24T00:21:42.516Z,3.10
2024-01-24T00:24:10.871Z,3.10
2024-01-24T00:26:39.714Z,3.10
2024-01-24T00:29:08.019Z,3.10
2024-01-24T00:31:37.760Z,3.30
2024-01-24T00:34:06.264Z,3.40
2024-01-24T00:36:34.536Z,3.30
2024-01-24T00:39:02.664Z,3.30
2024-01-24T00:41:30.821Z,3.30
2024-01-24T00:43:58.975Z,3.40
2024-01-24T00:46:27.156Z,3.40
2024-01-24T00:48:56.742Z,3.40
2024-01-24T00:51:24.720Z,3.40
2024-01-24T00:53:53.626Z,3.60
2024-01-24T00:56:22.607Z,3.60
2024-01-24T00:58:50.769Z,3.60
2024-01-24T01:01:18.905Z,3.60
2024-01-24T01:03:48.008Z,3.90
2024-01-24T01:06:18.463Z,4.00
2024-01-24T01:08:46.635Z,4.10
2024-01-24T01:11:14.797Z,4.20
2024-01-24T01:13:42.967Z,4.30
2024-01-24T01:16:11.125Z,4.30
2024-01-24T01:18:39.873Z,4.30
2024-01-24T01:21:08.369Z,4.30
2024-01-24T01:23:37.881Z,4.30
2024-01-24T01:26:05.928Z,4.30
2024-01-24T01:28:34.040Z,4.40
2024-01-24T01:31:02.185Z,4.40
2024-01-24T01:33:30.377Z,4.40
2024-01-24T01:36:09.125Z,4.40
2024-01-24T01:38:47.294Z,4.30
2024-01-24T01:41:14.235Z,4.30
2024-01-24T01:43:42.346Z,4.40
2024-01-24T01:46:18.259Z,4.50
2024-01-24T01:48:46.607Z,4.50
2024-01-24T01:51:15.282Z,4.50
2024-01-24T01:53:43.563Z,4.60
2024-01-24T01:56:14.757Z,4.70
2024-01-24T01:58:43.773Z,4.70
2024-01-24T02:03:54.373Z,4.90
2024-01-24T02:06:23.997Z,4.90
2024-01-24T02:08:52.945Z,4.80
2024-01-24T02:11:24.797Z,4.90
2024-01-24T02:14:00.553Z,4.80
2024-01-24T02:16:29.295Z,4.80
2024-01-24T02:18:58.147Z,4.80
2024-01-24T02:21:26.969Z,4.80
2024-01-24T02:23:56.715Z,4.80
2024-01-24T02:26:26.313Z,4.80
2024-01-24T02:28:54.534Z,4.80
2024-01-24T02:31:22.884Z,4.80
2024-01-24T02:33:51.238Z,4.80
2024-01-24T02:36:19.526Z,4.70
2024-01-24T02:38:47.753Z,4.70
2024-01-24T02:41:18.245Z,4.70
2024-01-24T02:43:47.785Z,4.60
2024-01-24T02:46:16.317Z,4.60
2024-01-24T02:48:44.610Z,4.60
2024-01-24T02:51:12.880Z,4.50
2024-01-24T02:53:41.375Z,4.50
2024-01-24T02:56:09.546Z,4.50
2024-01-24T02:58:37.765Z,4.50
2024-01-24T03:01:07.573Z,4.50
2024-01-24T03:03:35.931Z,4.50
2024-01-24T03:06:04.857Z,4.50
2024-01-24T03:08:48.754Z,4.50
2024-01-24T03:11:17.141Z,4.40
2024-01-24T03:13:45.347Z,4.40
2024-01-24T03:16:15.146Z,4.40
2024-01-24T03:18:43.849Z,4.40
2024-01-24T03:21:19.360Z,4.40
2024-01-24T03:23:47.663Z,4.40
2024-01-24T03:26:16.573Z,4.60
2024-01-24T03:28:45.048Z,4.70
2024-01-24T03:31:14.728Z,4.70
2024-01-24T03:33:43.461Z,4.80
2024-01-24T03:36:11.900Z,4.80
2024-01-24T03:38:40.220Z,4.90
2024-01-24T03:41:08.512Z,5.00
2024-01-24T03:43:40.088Z,4.90
2024-01-24T03:46:08.337Z,5.00
2024-01-24T03:48:37.966Z,5.00
2024-01-24T03:51:10.156Z,5.10
2024-01-24T03:53:38.356Z,5.10
2024-01-24T03:56:07.490Z,5.20
2024-01-24T03:58:37.504Z,5.30
2024-01-24T04:01:06.113Z,5.40
2024-01-24T04:03:34.535Z,5.30
2024-01-24T04:06:04.438Z,5.30
2024-01-24T04:08:32.633Z,5.30
2024-01-24T04:11:00.822Z,5.40
2024-01-24T04:13:28.978Z,5.50
2024-01-24T04:15:57.201Z,5.50
2024-01-24T04:18:25.506Z,5.60
2024-01-24T04:20:53.814Z,5.60
2024-01-24T04:23:23.400Z,5.60
2024-01-24T04:25:51.897Z,5.60
2024-01-24T04:28:20.050Z,5.70
2024-01-24T04:30:48.434Z,5.60
2024-01-24T04:33:16.886Z,5.70
2024-01-24T04:35:45.137Z,5.70
2024-01-24T04:38:14.046Z,5.70
2024-01-24T04:40:44.153Z,5.70
2024-01-24T04:43:12.792Z,5.80
2024-01-24T04:45:41.200Z,5.80
2024-01-24T04:48:09.894Z,5.70
2024-01-24T04:50:38.844Z,5.70
2024-01-24T04:53:07.200Z,5.70
2024-01-24T04:55:35.634Z,5.70
2024-01-24T04:58:05.738Z,5.80
2024-01-24T05:00:34.048Z,5.80
2024-01-24T05:03:02.561Z,5.90
2024-01-24T05:05:30.959Z,5.90
2024-01-24T05:07:59.162Z,5.90
2024-01-24T05:10:27.437Z,5.90
2024-01-24T05:12:55.726Z,6.00
2024-01-24T05:15:25.380Z,6.10
2024-01-24T05:17:53.738Z,6.20
2024-01-24T05:20:21.997Z,6.30
2024-01-24T05:22:50.271Z,6.40
2024-01-24T05:25:18.908Z,6.50
2024-01-24T05:27:47.898Z,6.60
2024-01-24T05:30:25.237Z,6.60
2024-01-24T05:33:04.478Z,6.70
2024-01-24T05:35:32.868Z,6.70
2024-01-24T05:38:01.130Z,6.70
2024-01-24T05:40:29.512Z,6.80
2024-01-24T05:42:57.999Z,6.90
2024-01-24T05:45:27.005Z,6.90
2024-01-24T05:47:55.336Z,6.90
2024-01-24T05:50:25.014Z,7.00
2024-01-24T05:52:53.159Z,6.90
2024-01-24T05:55:21.511Z,6.90
2024-01-24T05:57:49.702Z,7.00
2024-01-24T06:00:18.376Z,7.10
2024-01-24T06:02:48.605Z,7.10
2024-01-24T06:05:17.551Z,7.30
2024-01-24T06:07:50.457Z,7.30
2024-01-24T06:10:18.752Z,7.20
2024-01-24T06:12:47.000Z,7.20
2024-01-24T06:15:15.380Z,7.20
2024-01-24T06:17:43.798Z,7.10
2024-01-24T06:20:13.213Z,7.10
2024-01-24T06:22:41.294Z,7.20
2024-01-24T06:25:11.118Z,7.30
2024-01-24T06:27:40.381Z,7.40
2024-01-24T06:30:19.318Z,7.40
2024-01-24T06:32:52.502Z,7.40
2024-01-24T06:35:22.172Z,7.40
2024-01-24T06:37:51.491Z,7.50
2024-01-24T06:40:22.061Z,7.70
2024-01-24T06:42:51.574Z,7.70
2024-01-24T06:45:20.970Z,7.70
2024-01-24T06:47:49.823Z,7.60
2024-01-24T06:50:19.197Z,7.60
2024-01-24T06:52:47.849Z,7.50
2024-01-24T06:55:16.356Z,7.50
2024-01-24T06:57:46.649Z,7.60
2024-01-24T07:00:15.762Z,7.60
2024-01-24T07:02:43.995Z,7.60
2024-01-24T07:05:12.275Z,7.70
2024-01-24T07:07:40.493Z,7.70
2024-01-24T07:10:12.989Z,7.80
2024-01-24T07:12:46.858Z,7.80
2024-01-24T07:15:18.467Z,7.80
2024-01-24T07:17:47.449Z,7.80
2024-01-24T07:20:17.177Z,7.80
2024-01-24T07:22:45.737Z,7.90
2024-01-24T07:25:14.015Z,7.90
2024-01-24T07:27:42.866Z,7.90
2024-01-24T07:30:11.851Z,8.00
2024-01-24T07:32:42.349Z,8.10
2024-01-24T07:35:11.295Z,8.10
2024-01-24T07:37:39.534Z,8.10
2024-01-24T07:40:11.730Z,8.20
2024-01-24T07:42:40.066Z,8.30
2024-01-24T07:45:10.201Z,8.30
2024-01-24T07:47:39.698Z,8.30
2024-01-24T07:50:12.740Z,8.40
2024-01-24T07:52:43.150Z,8.40
2024-01-24T07:55:13.519Z,8.50
2024-01-24T07:57:42.547Z,8.60
2024-01-24T08:00:17.958Z,8.70
2024-01-24T08:02:48.963Z,8.70
2024-01-24T08:05:23.224Z,8.90
2024-01-24T08:07:51.574Z,9.00
2024-01-24T08:10:19.756Z,9.10
2024-01-24T08:12:50.540Z,9.20
2024-01-24T08:15:19.370Z,9.20
2024-01-24T08:17:48.925Z,9.10
2024-01-24T08:20:20.794Z,9.20
2024-01-24T08:22:50.745Z,9.20
2024-01-24T08:25:19.036Z,9.30
2024-01-24T08:27:47.467Z,9.30
2024-01-24T08:30:16.928Z,9.40
2024-01-24T08:32:45.288Z,9.40
2024-01-24T08:35:14.182Z,9.40
2024-01-24T08:37:42.487Z,9.40
2024-01-24T08:40:12.948Z,9.40
2024-01-24T08:42:43.204Z,9.50
2024-01-24T08:45:11.797Z,9.50
2024-01-24T08:47:40.251Z,9.50
2024-01-24T08:50:09.988Z,9.50
2024-01-24T08:52:38.310Z,9.50
2024-01-24T08:55:08.854Z,9.50
2024-01-24T08:57:38.794Z,9.50
2024-01-24T09:00:09.683Z,9.60
2024-01-24T09:02:38.099Z,9.60
2024-01-24T09:05:09.779Z,9.60
2024-01-24T09:07:38.638Z,9.70
2024-01-24T09:10:09.907Z,9.80
2024-01-24T09:12:40.072Z,9.90
2024-01-24T09:15:09.516Z,9.90
2024-01-24T09:17:38.259Z,10.00
2024-01-24T09:20:08.391Z,10.10
2024-01-24T09:22:37.575Z,10.10
2024-01-24T09:25:08.316Z,10.20
2024-01-24T09:27:39.952Z,10.30
2024-01-24T09:30:09.633Z,10.40
2024-01-24T09:32:37.964Z,10.40
2024-01-24T09:35:07.207Z,10.40
2024-01-24T09:37:35.847Z,10.40
2024-01-24T09:40:04.523Z,10.40
2024-01-24T09:42:42.111Z,10.50
2024-01-24T09:45:12.288Z,10.50
2024-01-24T09:47:41.609Z,10.60
2024-01-24T09:50:13.032Z,10.70
2024-01-24T09:52:45.955Z,10.70
2024-01-24T09:55:20.195Z,10.80
2024-01-24T09:57:48.642Z,10.90
2024-01-24T10:00:19.190Z,10.90
2024-01-24T10:02:48.949Z,11.00
2024-01-24T10:05:19.421Z,11.00
2024-01-24T10:07:48.036Z,11.00
2024-01-24T10:10:16.772Z,11.00
2024-01-24T10:12:45.508Z,11.00
2024-01-24T10:15:13.882Z,11.00
2024-01-24T10:17:44.521Z,11.10
2024-01-24T10:20:14.219Z,11.30
2024-01-24T10:22:45.885Z,11.30
2024-01-24T10:25:14.459Z,11.60
2024-01-24T10:27:43.722Z,11.90
2024-01-24T10:30:14.281Z,12.00
2024-01-24T10:32:47.076Z,12.40
2024-01-24T10:35:16.962Z,12.60
2024-01-24T10:37:46.144Z,12.80
2024-01-24T10:40:17.747Z,12.80
2024-01-24T10:42:50.842Z,12.60
2024-01-24T10:45:22.266Z,12.40
2024-01-24T10:47:53.638Z,12.30
2024-01-24T10:50:23.026Z,12.30
2024-01-24T10:52:54.858Z,12.50
2024-01-24T10:55:24.490Z,12.50
2024-01-24T10:57:53.618Z,12.50
2024-01-24T11:00:24.184Z,12.30
2024-01-24T11:02:55.438Z,12.30
2024-01-24T11:05:30.477Z,12.20
2024-01-24T11:08:04.738Z,12.10
2024-01-24T11:10:37.670Z,12.00
2024-01-24T11:13:08.257Z,12.00
2024-01-24T11:15:37.687Z,11.80
2024-01-24T11:18:24.344Z,11.80
2024-01-24T11:20:54.425Z,11.70
2024-01-24T11:23:36.542Z,11.70
2024-01-24T11:26:05.372Z,11.70
2024-01-24T11:28:33.683Z,11.70
2024-01-24T11:31:02.002Z,12.00
2024-01-24T11:33:31.883Z,12.70
2024-01-24T11:36:00.767Z,12.90
2024-01-24T11:38:37.030Z,13.60
2024-01-24T11:41:23.196Z,14.00
2024-01-24T11:43:51.587Z,14.30
2024-01-24T11:46:22.297Z,14.10
2024-01-24T11:48:52.055Z,14.00
2024-01-24T11:51:21.612Z,13.60
2024-01-24T11:53:50.455Z,13.40
2024-01-24T11:56:19.234Z,13.10
2024-01-24T11:58:47.614Z,12.90
2024-01-24T12:01:17.252Z,12.80
2024-01-24T12:03:49.775Z,12.70
2024-01-24T12:06:22.382Z,12.70
2024-01-24T12:08:51.917Z,12.60
2024-01-24T12:11:21.446Z,12.40
2024-01-24T12:13:50.209Z,12.40
2024-01-24T12:16:21.745Z,12.30
2024-01-24T12:18:50.278Z,12.20
2024-01-24T12:21:22.525Z,12.10
2024-01-24T12:23:53.871Z,12.20
2024-01-24T12:26:22.332Z,12.10
2024-01-24T12:28:50.634Z,12.10
2024-01-24T12:31:20.305Z,12.20
2024-01-24T12:33:49.149Z,12.20
2024-01-24T12:36:17.955Z,12.30
2024-01-24T12:38:47.706Z,12.30
2024-01-24T12:41:16.240Z,12.30
2024-01-24T12:43:44.545Z,12.80
2024-01-24T12:46:14.276Z,13.00
2024-01-24T12:48:42.982Z,13.10
2024-01-24T12:51:11.451Z,13.60
2024-01-24T12:53:39.972Z,14.00
2024-01-24T12:56:09.754Z,14.50
2024-01-24T12:58:38.489Z,14.60
2024-01-24T13:01:06.821Z,14.40
2024-01-24T13:03:35.348Z,14.00
2024-01-24T13:06:04.722Z,13.80
2024-01-24T13:08:33.158Z,13.60
2024-01-24T13:11:02.754Z,13.30
2024-01-24T13:13:32.737Z,13.10
2024-01-24T13:16:01.117Z,12.90
2024-01-24T13:18:29.758Z,12.70
2024-01-24T13:20:58.061Z,12.60
2024-01-24T13:23:26.719Z,12.40
2024-01-24T13:25:57.188Z,12.30
2024-01-24T13:28:25.564Z,12.30
2024-01-24T13:30:55.423Z,12.40
2024-01-24T13:33:24.079Z,12.30
2024-01-24T13:35:52.679Z,12.20
2024-01-24T13:38:21.049Z,12.10
2024-01-24T13:40:49.578Z,11.90
2024-01-24T13:43:17.836Z,11.80
2024-01-24T13:45:48.085Z,11.80
2024-01-24T13:48:18.287Z,11.70
2024-01-24T13:50:47.012Z,11.60
2024-01-24T13:53:16.011Z,11.50
2024-01-24T13:55:44.525Z,11.40
2024-01-24T13:58:13.542Z,11.40
2024-01-24T14:00:43.016Z,11.30
2024-01-24T14:03:11.630Z,11.20
2024-01-24T14:05:41.335Z,11.10
2024-01-24T14:08:09.788Z,11.00
2024-01-24T14:10:38.183Z,10.90
2024-01-24T14:13:06.667Z,10.80
2024-01-24T14:15:37.088Z,10.70
2024-01-24T14:18:06.866Z,10.50
2024-01-24T14:20:35.372Z,10.40
2024-01-24T14:23:06.051Z,10.40
2024-01-24T14:25:34.383Z,10.30
2024-01-24T14:28:03.056Z,10.20
2024-01-24T14:30:31.440Z,10.10
2024-01-24T14:32:59.923Z,10.10
2024-01-24T14:35:29.013Z,10.00
2024-01-24T14:37:57.677Z,10.00
2024-01-24T14:40:27.425Z,9.90
2024-01-24T14:42:55.726Z,9.80
2024-01-24T14:45:23.972Z,9.80
2024-01-24T14:47:52.221Z,9.80
2024-01-24T14:50:20.545Z,9.80
2024-01-24T14:52:48.864Z,9.90
2024-01-24T14:55:17.407Z,9.90
2024-01-24T14:57:46.992Z,9.90
2024-01-24T15:00:20.685Z,9.80
2024-01-24T15:02:49.178Z,9.80
2024-01-24T15:05:18.086Z,9.80
2024-01-24T15:07:46.632Z,9.90
2024-01-24T15:10:15.178Z,9.90
2024-01-24T15:12:43.453Z,9.80
2024-01-24T15:15:13.252Z,9.90
2024-01-24T15:17:41.629Z,9.90
2024-01-24T15:20:11.591Z,9.90
2024-01-24T15:22:41.846Z,9.80
2024-01-24T15:25:11.394Z,9.70
2024-01-24T15:27:40.485Z,9.70
2024-01-24T15:30:10.816Z,9.60
2024-01-24T15:32:40.733Z,9.60
2024-01-24T15:35:09.843Z,9.50
2024-01-24T15:37:38.245Z,9.40
2024-01-24T15:40:11.042Z,9.40
2024-01-24T15:42:44.204Z,9.30
2024-01-24T15:45:14.436Z,9.20
2024-01-24T15:47:44.372Z,9.20
2024-01-24T15:50:13.772Z,9.10
2024-01-24T15:52:42.065Z,9.10
2024-01-24T15:55:11.173Z,9.10
2024-01-24T15:57:39.567Z,9.10
2024-01-24T16:00:10.979Z,9.10
2024-01-24T16:02:40.059Z,9.00
2024-01-24T16:05:21.527Z,8.90
2024-01-24T16:07:50.060Z,8.90
2024-01-24T16:10:18.603Z,8.90
2024-01-24T16:12:47.134Z,8.90
2024-01-24T16:15:15.494Z,8.90
2024-01-24T16:17:44.247Z,8.90
2024-01-24T16:20:14.350Z,8.90
2024-01-24T16:22:50.760Z,8.80
2024-01-24T16:25:24.008Z,8.70
2024-01-24T16:27:52.336Z,8.70
2024-01-24T16:30:21.596Z,8.60
2024-01-24T16:32:52.802Z,8.50
2024-01-24T16:35:23.541Z,8.50
2024-01-24T16:37:53.059Z,8.50
2024-01-24T16:43:06.673Z,8.40
2024-01-24T16:45:34.935Z,8.40
2024-01-24T16:48:03.200Z,8.40
2024-01-24T16:50:32.824Z,8.30
2024-01-24T16:53:01.033Z,8.30
2024-01-24T16:55:31.240Z,8.20
2024-01-24T16:57:59.550Z,8.10
2024-01-24T17:00:27.841Z,8.10
2024-01-24T17:02:58.507Z,8.10
2024-01-24T17:05:27.358Z,8.10
2024-01-24T17:07:56.963Z,8.10
2024-01-24T17:10:24.907Z,8.00
2024-01-24T17:12:53.169Z,8.10
2024-01-24T17:15:21.678Z,8.00
2024-01-24T17:17:49.926Z,8.00
2024-01-24T17:20:18.815Z,8.00
2024-01-24T17:22:46.994Z,8.00
2024-01-24T17:25:18.975Z,8.10
2024-01-24T17:27:47.192Z,8.20
2024-01-24T17:30:15.868Z,8.20
2024-01-24T17:32:44.184Z,8.20
2024-01-24T17:35:12.439Z,8.20
2024-01-24T17:37:40.775Z,8.20
2024-01-24T17:40:10.308Z,8.40
2024-01-24T17:42:40.302Z,8.40
2024-01-24T17:45:09.392Z,8.40
2024-01-24T17:47:38.827Z,8.40
2024-01-24T17:50:08.266Z,8.30
2024-01-24T17:52:38.686Z,8.40
2024-01-24T17:55:07.686Z,8.40
2024-01-24T17:57:35.986Z,8.30
2024-01-24T18:00:07.134Z,8.30
2024-01-24T18:02:35.508Z,8.30
2024-01-24T18:05:04.779Z,8.30
2024-01-24T18:07:33.307Z,8.30
2024-01-24T18:10:02.413Z,8.30
2024-01-24T18:12:30.708Z,8.30
2024-01-24T18:14:58.951Z,8.30
2024-01-24T18:17:28.671Z,8.20
2024-01-24T18:19:57.231Z,8.20
2024-01-24T18:22:26.163Z,8.20
2024-01-24T18:24:54.519Z,8.20
2024-01-24T18:27:22.991Z,8.20
2024-01-24T18:29:53.808Z,8.20
2024-01-24T18:32:22.331Z,8.20
2024-01-24T18:34:52.060Z,8.20
2024-01-24T18:37:20.577Z,8.20
2024-01-24T18:39:49.659Z,8.20
2024-01-24T18:42:18.000Z,8.20
2024-01-24T18:44:47.323Z,8.20
2024-01-24T18:47:15.855Z,8.20
2024-01-24T18:49:45.207Z,8.20
2024-01-24T18:52:15.941Z,8.10
2024-01-24T18:54:46.412Z,8.10
2024-01-24T18:57:14.699Z,8.10
2024-01-24T18:59:42.880Z,8.10
2024-01-24T19:02:13.009Z,8.10
2024-01-24T19:04:42.323Z,8.10
2024-01-24T19:07:10.716Z,8.00
2024-01-24T19:09:41.022Z,8.00
2024-01-24T19:12:11.055Z,8.00
2024-01-24T19:14:41.509Z,8.00
2024-01-24T19:17:10.101Z,7.90
2024-01-24T19:19:39.417Z,8.00
2024-01-24T19:22:07.742Z,8.00
2024-01-24T19:24:36.081Z,8.00
2024-01-24T19:27:06.733Z,7.90
2024-01-24T19:29:35.086Z,7.90
2024-01-24T19:32:03.948Z,7.90
2024-01-24T19:34:32.228Z,7.90
2024-01-24T19:37:00.596Z,7.80
2024-01-24T19:39:28.746Z,7.80
2024-01-24T19:41:57.751Z,7.80
2024-01-24T19:44:27.410Z,7.80
2024-01-24T19:46:57.073Z,7.80
2024-01-24T19:49:25.495Z,7.70
2024-01-24T19:51:54.255Z,7.70
2024-01-24T19:54:22.699Z,7.70
2024-01-24T19:56:50.843Z,7.60
2024-01-24T19:59:19.036Z,7.60
2024-01-24T20:01:48.702Z,7.60
2024-01-24T20:04:17.081Z,7.60
2024-01-24T20:06:45.485Z,7.70
2024-01-24T20:09:14.658Z,7.70
2024-01-24T20:11:43.167Z,7.70
2024-01-24T20:14:11.354Z,7.80
2024-01-24T20:16:39.596Z,7.80
2024-01-24T20:19:09.366Z,7.80
2024-01-24T20:21:41.442Z,7.80
2024-01-24T20:24:10.830Z,7.70
2024-01-24T20:26:39.054Z,7.70
2024-01-24T20:29:08.311Z,7.80
2024-01-24T20:31:36.621Z,7.80
2024-01-24T20:34:04.903Z,7.90
2024-01-24T20:36:35.767Z,7.90
2024-01-24T20:39:03.998Z,7.80
2024-01-24T20:41:32.216Z,7.80
2024-01-24T20:44:00.403Z,7.80
2024-01-24T20:46:28.649Z,7.80
2024-01-24T20:48:57.017Z,7.70
2024-01-24T20:51:25.282Z,7.70
2024-01-24T20:53:54.856Z,7.60
2024-01-24T20:56:22.991Z,7.50
2024-01-24T20:58:51.169Z,7.50
2024-01-24T21:01:20.903Z,7.40
2024-01-24T21:03:50.001Z,7.30
2024-01-24T21:06:18.250Z,7.30
2024-01-24T21:08:46.406Z,7.30
2024-01-24T21:11:15.932Z,7.30
2024-01-24T21:13:44.121Z,7.30
2024-01-24T21:16:12.507Z,7.30
2024-01-24T21:18:40.747Z,7.30
2024-01-24T21:21:09.261Z,7.30
2024-01-24T21:23:37.605Z,7.30
2024-01-24T21:26:05.999Z,7.30
2024-01-24T21:28:35.740Z,7.30
2024-01-24T21:31:04.158Z,7.30
2024-01-24T21:33:33.020Z,7.20
2024-01-24T21:36:01.393Z,7.20
2024-01-24T21:38:29.552Z,7.20
2024-01-24T21:40:57.971Z,7.20
2024-01-24T21:43:26.158Z,7.20
2024-01-24T21:45:55.780Z,7.20
2024-01-24T21:48:24.018Z,7.20
2024-01-24T21:50:52.195Z,7.20
2024-01-24T21:53:20.553Z,7.20
2024-01-24T21:55:48.755Z,7.20
2024-01-24T21:58:17.059Z,7.20
2024-01-24T22:00:45.375Z,7.20
2024-01-24T22:03:15.102Z,7.20
2024-01-24T22:05:43.260Z,7.20
2024-01-24T22:08:11.467Z,7.30
2024-01-24T22:10:39.684Z,7.30
2024-01-24T22:13:07.957Z,7.30
2024-01-24T22:15:36.221Z,7.40
2024-01-24T22:18:04.668Z,7.30
2024-01-24T22:20:40.374Z,7.30
2024-01-24T22:23:09.577Z,7.20
2024-01-24T22:25:37.791Z,7.30
2024-01-24T22:28:06.506Z,7.20
2024-01-24T22:30:34.843Z,7.20
2024-01-24T22:33:03.143Z,7.10
2024-01-24T22:35:31.478Z,7.00
2024-01-24T22:38:02.120Z,7.00
2024-01-24T22:40:30.649Z,6.90
2024-01-24T22:42:59.060Z,6.80
2024-01-24T22:45:27.475Z,6.90
2024-01-24T22:47:56.186Z,6.90
2024-01-24T22:50:24.795Z,6.90
2024-01-24T22:52:53.069Z,6.90
2024-01-24T22:55:22.754Z,7.00
2024-01-24T22:57:51.505Z,7.00
2024-01-24T23:00:22.411Z,7.10
2024-01-24T23:02:50.576Z,7.10
2024-01-24T23:05:18.905Z,7.10
2024-01-24T23:07:47.299Z,7.10
2024-01-24T23:10:15.606Z,7.10
2024-01-24T23:12:45.170Z,7.20
2024-01-24T23:15:13.148Z,7.10
2024-01-24T23:17:41.699Z,7.10
2024-01-24T23:20:10.969Z,7.10
2024-01-24T23:22:39.150Z,7.10
2024-01-24T23:25:08.200Z,7.10
2024-01-24T23:27:36.366Z,7.10
2024-01-24T23:30:06.872Z,7.10
2024-01-24T23:32:35.100Z,7.10
2024-01-24T23:35:03.878Z,7.10
2024-01-24T23:37:32.439Z,7.10
2024-01-24T23:40:00.788Z,7.10
2024-01-24T23:42:29.174Z,7.10
2024-01-24T23:44:57.424Z,7.10
2024-01-24T23:47:27.009Z,7.00
2024-01-24T23:49:55.551Z,7.00
2024-01-24T23:52:23.960Z,7.00
2024-01-24T23:54:52.246Z,7.10
2024-01-24T23:57:20.452Z,7.10
2024-01-24T23:59:49.427Z,7.00
